Volcan De Timanfaya — ECHT — position and weather

sailwx.info

Track history (hours):
 
Tides and Currents Weather Stations Pressure Air Temp Water Temp Dewpoint Dewpoint Depression Visibility Wind Speed Wind Dir Waves Ship Positions

Volcan De Timanfaya

Last reported at 2018-Jun-18 03:30 UTC. Time now 2018-Jun-18 03:49 UTC.
Position N 28°10' W 015°24'.

Type: Passenger vessel. MMSI: 2414500.

Date/timePositionNaut miles runAvg speedWind from/ knotsBaromVisibWave heightAir tempDewpointWater temp
2018-Jun-18 03:30N 28°10' W 015°24'0 0.0
2018-Jun-18 03:00N 28°10' W 015°24'0 0.0
2018-Jun-18 02:30N 28°10' W 015°24'0 0.0
2018-Jun-18 01:59N 28°10' W 015°24'0 0.0
2018-Jun-18 01:30N 28°10' W 015°24'0 0.0
2018-Jun-18 01:00N 28°10' W 015°24'0 0.0
2018-Jun-18 00:30N 28°10' W 015°24'0 0.0
2018-Jun-17 23:58N 28°10' W 015°24'0 0.0
2018-Jun-17 23:30N 28°10' W 015°24'0 0.0
2018-Jun-17 23:00N 28°10' W 015°24'0 0.0
2018-Jun-17 22:30N 28°10' W 015°24'0 0.0
2018-Jun-17 22:00N 28°10' W 015°24'0 0.0
2018-Jun-17 21:30N 28°10' W 015°24'0 0.0
2018-Jun-17 21:00N 28°10' W 015°24'0 0.0
2018-Jun-17 20:30N 28°10' W 015°24'510.5
2018-Jun-17 20:00N 28°08' W 015°18'1020.3
2018-Jun-17 19:30N 28°07' W 015°07'1020.7
2018-Jun-17 19:00N 28°05' W 014°55'1020.6
2018-Jun-17 18:30N 28°04' W 014°44'1020.4
2018-Jun-17 18:00N 28°02' W 014°32'918.0
2018-Jun-17 17:30N 28°03' W 014°22'0 0.0
2018-Jun-17 17:00N 28°03' W 014°22'0 0.0
2018-Jun-17 16:24N 28°03' W 014°22'0 0.0
2018-Jun-17 16:00N 28°03' W 014°22'813.7
2018-Jun-17 15:24N 28°02' W 014°31'820.2
2018-Jun-17 15:00N 28°03' W 014°40'1020.5
2018-Jun-17 14:30N 28°04' W 014°51'1020.2
2018-Jun-17 14:01N 28°06' W 015°03'1020.0
2018-Jun-17 13:31N 28°07' W 015°14'918.3
2018-Jun-17 13:01N 28°09' W 015°24'0 0.5
2018-Jun-17 12:30N 28°10' W 015°24'0 0.0
2018-Jun-17 12:00N 28°10' W 015°24'0 0.0
2018-Jun-17 11:28N 28°10' W 015°24'0 0.0
2018-Jun-17 11:00N 28°10' W 015°24'0 0.0
2018-Jun-17 10:30N 28°10' W 015°24'0 0.0
2018-Jun-17 10:00N 28°10' W 015°24'2 3.3
2018-Jun-17 09:30N 28°11' W 015°24'1020.3
2018-Jun-17 09:00N 28°15' W 015°34'1020.1
2018-Jun-17 08:30N 28°19' W 015°45'1020.3
2018-Jun-17 08:00N 28°22' W 015°56'1020.6
2018-Jun-17 07:30N 28°26' W 016°07'714.5
2018-Jun-17 07:00N 28°28' W 016°15'0 0.0
2018-Jun-17 06:30N 28°28' W 016°15'0 0.0
2018-Jun-17 06:00N 28°28' W 016°15'0 0.0
2018-Jun-17 05:30N 28°28' W 016°15'0 0.0
2018-Jun-17 05:00N 28°28' W 016°15'0 0.0
2018-Jun-17 04:30N 28°28' W 016°15'0 0.0
2018-Jun-17 04:00N 28°28' W 016°15'0 0.0
2018-Jun-17 03:30N 28°28' W 016°15'0 0.0
2018-Jun-17 03:00N 28°28' W 016°15'0 0.0
2018-Jun-17 02:30N 28°28' W 016°15'0 0.0
2018-Jun-17 02:00N 28°28' W 016°15'0 0.0
2018-Jun-17 01:30N 28°28' W 016°15'0 0.0
2018-Jun-17 01:00N 28°28' W 016°15'0 0.0
2018-Jun-17 00:30N 28°28' W 016°15'0 0.0
2018-Jun-17 00:00N 28°28' W 016°15'0 0.0
2018-Jun-16 23:30N 28°28' W 016°15'0 0.0
2018-Jun-16 23:00N 28°28' W 016°15'0 0.0
2018-Jun-16 22:30N 28°28' W 016°15'0 0.0
2018-Jun-16 21:59N 28°28' W 016°15'3 5.2
2018-Jun-16 21:30N 28°28' W 016°12'1021.2
2018-Jun-16 21:01N 28°24' W 016°01'1121.0
2018-Jun-16 20:30N 28°21' W 015°50'1020.9
2018-Jun-16 20:00N 28°17' W 015°39'1020.7
2018-Jun-16 19:30N 28°13' W 015°28'5 9.0
2018-Jun-16 19:00N 28°10' W 015°24'0 0.0
2018-Jun-16 18:30N 28°10' W 015°24'0 0.0
2018-Jun-16 18:00N 28°10' W 015°24'4 8.5
2018-Jun-16 17:30N 28°08' W 015°19'1020.5
2018-Jun-16 17:00N 28°07' W 015°08'1121.0
2018-Jun-16 16:30N 28°05' W 014°56'1120.9
2018-Jun-16 16:00N 28°04' W 014°44'1021.0
2018-Jun-16 15:31N 28°02' W 014°33'1019.1
2018-Jun-16 15:00N 28°03' W 014°22'0 0.1
2018-Jun-16 14:30N 28°03' W 014°22'0 0.0
2018-Jun-16 14:00N 28°03' W 014°22'0 0.0
2018-Jun-16 13:29N 28°03' W 014°22'8 8.5
2018-Jun-16 12:32N 28°02' W 014°31'119.2
2018-Jun-16 12:30N 28°02' W 014°32'1020.1
2018-Jun-16 12:00N 28°03' W 014°43'1020.5
2018-Jun-16 11:30N 28°05' W 014°54'1020.3
2018-Jun-16 11:00N 28°06' W 015°06'1020.1
2018-Jun-16 10:30N 28°08' W 015°17'612.7
2018-Jun-16 10:00N 28°10' W 015°24'0 0.0
2018-Jun-16 09:30N 28°10' W 015°24'3 5.8
2018-Jun-16 09:00N 28°12' W 015°25'1020.6
2018-Jun-16 08:30N 28°16' W 015°36'1020.2
2018-Jun-16 08:00N 28°20' W 015°47'1020.4
2018-Jun-16 07:31N 28°23' W 015°58'1020.6
2018-Jun-16 07:00N 28°27' W 016°09'510.9
2018-Jun-16 06:30N 28°28' W 016°15'0 0.0
2018-Jun-16 06:00N 28°28' W 016°15'0 0.0
2018-Jun-16 05:30N 28°28' W 016°15'0 0.0
2018-Jun-16 05:00N 28°28' W 016°15'0 0.0
2018-Jun-16 04:30N 28°28' W 016°15'0 0.0
2018-Jun-16 04:00N 28°28' W 016°15'0 0.0
2018-Jun-16 03:30N 28°28' W 016°15'0 0.0
2018-Jun-16 03:00N 28°28' W 016°15'0 0.0
2018-Jun-16 02:30N 28°28' W 016°15'0 0.0
2018-Jun-16 02:00N 28°28' W 016°15'0 0.0
2018-Jun-16 01:30N 28°28' W 016°15'0 0.0
2018-Jun-16 01:00N 28°28' W 016°15'0 0.0
2018-Jun-16 00:30N 28°28' W 016°15'0 0.0
2018-Jun-16 00:00N 28°28' W 016°15'0 0.0
2018-Jun-15 23:30N 28°28' W 016°15'0 0.0
2018-Jun-15 23:00N 28°28' W 016°15'0 0.0
2018-Jun-15 22:30N 28°28' W 016°15'0 0.2
2018-Jun-15 22:00N 28°28' W 016°15'611.2
2018-Jun-15 21:30N 28°27' W 016°08'1020.5
2018-Jun-15 21:00N 28°24' W 015°57'1020.6
2018-Jun-15 20:31N 28°20' W 015°47'1020.5
2018-Jun-15 20:00N 28°16' W 015°36'1020.1
2018-Jun-15 19:30N 28°12' W 015°25'3 5.0
2018-Jun-15 18:58N 28°10' W 015°24'0 0.0
2018-Jun-15 18:30N 28°10' W 015°24'0 0.0
2018-Jun-15 18:00N 28°10' W 015°24'510.6
2018-Jun-15 17:31N 28°08' W 015°18'1020.2
2018-Jun-15 17:00N 28°07' W 015°07'1020.7
2018-Jun-15 16:31N 28°05' W 014°55'1020.5
2018-Jun-15 16:01N 28°04' W 014°44'1120.9
2018-Jun-15 15:30N 28°02' W 014°32'916.9
2018-Jun-15 14:58N 28°03' W 014°22'0 0.0
2018-Jun-15 14:25N 28°03' W 014°22'0 0.0
2018-Jun-15 13:51N 28°03' W 014°22'0 0.0
2018-Jun-15 13:25N 28°03' W 014°22'0 0.0
2018-Jun-15 12:58N 28°03' W 014°22'811.9
2018-Jun-15 12:19N 28°02' W 014°30'619.3
2018-Jun-15 12:01N 28°03' W 014°37'1020.3
2018-Jun-15 11:31N 28°04' W 014°49'1020.2
2018-Jun-15 11:00N 28°05' W 014°60'1020.1
2018-Jun-15 10:31N 28°07' W 015°11'1020.2
2018-Jun-15 10:00N 28°09' W 015°23'2 3.1
2018-Jun-15 09:30N 28°10' W 015°24'2 3.6
2018-Jun-15 09:00N 28°11' W 015°24'1020.7
2018-Jun-15 08:31N 28°15' W 015°34'1020.1
2018-Jun-15 08:00N 28°19' W 015°45'1020.1
2018-Jun-15 07:30N 28°23' W 015°56'1020.3
2018-Jun-15 07:00N 28°26' W 016°06'815.1
2018-Jun-15 06:30N 28°28' W 016°15'0 0.0
2018-Jun-15 06:00N 28°28' W 016°15'0 0.0
2018-Jun-15 05:30N 28°28' W 016°15'0 0.0
2018-Jun-15 05:00N 28°28' W 016°15'0 0.0
2018-Jun-15 04:30N 28°28' W 016°15'0 0.0
2018-Jun-15 04:00N 28°28' W 016°15'0 0.0
2018-Jun-15 03:30N 28°28' W 016°15'0 0.0
2018-Jun-15 03:00N 28°28' W 016°15'0 0.0
2018-Jun-15 02:30N 28°28' W 016°15'0 0.0
2018-Jun-15 02:00N 28°28' W 016°15'0 0.0
2018-Jun-15 01:30N 28°28' W 016°15'0 0.0
2018-Jun-15 01:00N 28°28' W 016°15'0 0.0
2018-Jun-15 00:30N 28°28' W 016°15'0 0.0
2018-Jun-15 00:00N 28°28' W 016°15'0 0.0
2018-Jun-14 23:30N 28°28' W 016°15'0 0.0
2018-Jun-14 23:00N 28°28' W 016°15'0 0.0
2018-Jun-14 22:30N 28°28' W 016°15'0 0.3
2018-Jun-14 22:00N 28°28' W 016°15'510.1
2018-Jun-14 21:30N 28°27' W 016°09'1020.4
2018-Jun-14 21:00N 28°24' W 015°58'1020.4
2018-Jun-14 20:30N 28°20' W 015°47'1020.4
2018-Jun-14 20:00N 28°16' W 015°36'1020.0
2018-Jun-14 19:30N 28°13' W 015°26'3 6.9
2018-Jun-14 19:00N 28°10' W 015°24'0 0.0
2018-Jun-14 18:30N 28°10' W 015°24'0 0.0
2018-Jun-14 17:58N 28°10' W 015°24'510.4
2018-Jun-14 17:30N 28°08' W 015°19'1020.3
2018-Jun-14 17:00N 28°07' W 015°07'1020.6
2018-Jun-14 16:31N 28°05' W 014°56'1020.4
2018-Jun-14 16:00N 28°04' W 014°44'1020.7
2018-Jun-14 15:30N 28°02' W 014°33'1018.9
2018-Jun-14 15:00N 28°03' W 014°22'0 0.1
2018-Jun-14 14:29N 28°03' W 014°22'0 0.0
2018-Jun-14 13:11N 28°03' W 014°22'0 0.0
2018-Jun-14 12:53N 28°03' W 014°22'0 0.0
2018-Jun-14 12:23N 28°03' W 014°22'0 0.0
2018-Jun-14 11:29N 28°03' W 014°22'0 0.0
2018-Jun-14 10:59N 28°03' W 014°22'0 0.0
2018-Jun-14 10:29N 28°03' W 014°22'0 0.0
2018-Jun-14 09:59N 28°03' W 014°22'814.3
2018-Jun-14 09:25N 28°02' W 014°31'819.5
2018-Jun-14 09:00N 28°03' W 014°40'1020.2
2018-Jun-14 08:30N 28°04' W 014°51'1019.9
2018-Jun-14 08:00N 28°06' W 015°03'1020.1
2018-Jun-14 07:30N 28°07' W 015°14'918.7
2018-Jun-14 07:00N 28°09' W 015°24'0 0.9
2018-Jun-14 06:30N 28°10' W 015°24'0 0.0
2018-Jun-14 06:00N 28°10' W 015°24'0 0.0
2018-Jun-14 05:30N 28°10' W 015°24'0 0.0
2018-Jun-14 05:00N 28°10' W 015°24'0 0.0
2018-Jun-14 04:30N 28°10' W 015°24'0 0.0
2018-Jun-14 04:00N 28°10' W 015°24'0 0.0
2018-Jun-14 03:30N 28°10' W 015°24'0 0.0
2018-Jun-14 03:00N 28°10' W 015°24'0 0.0
2018-Jun-14 02:29N 28°10' W 015°24'0 0.0
2018-Jun-14 02:00N 28°10' W 015°24'0 0.0
2018-Jun-14 01:30N 28°10' W 015°24'0 0.0
2018-Jun-14 01:00N 28°10' W 015°24'0 0.0
2018-Jun-14 00:30N 28°10' W 015°24'0 0.0
2018-Jun-14 00:00N 28°10' W 015°24'0 0.0
2018-Jun-13 23:30N 28°10' W 015°24'0 0.0
2018-Jun-13 22:59N 28°10' W 015°24'0 0.0
2018-Jun-13 22:30N 28°10' W 015°24'0 0.0
2018-Jun-13 22:00N 28°10' W 015°24'0 0.0
2018-Jun-13 21:30N 28°10' W 015°24'0 0.0
2018-Jun-13 21:00N 28°10' W 015°24'0 0.0
2018-Jun-13 20:29N 28°10' W 015°24'0 0.0
2018-Jun-13 20:00N 28°10' W 015°24'0 0.0
2018-Jun-13 19:30N 28°10' W 015°24'0 0.0
2018-Jun-13 19:00N 28°10' W 015°24'0 0.0
2018-Jun-13 18:30N 28°10' W 015°24'0 0.3
2018-Jun-13 18:00N 28°09' W 015°24'816.5
2018-Jun-13 17:30N 28°08' W 015°15'1020.8
2018-Jun-13 17:00N 28°06' W 015°03'1020.6
2018-Jun-13 16:31N 28°05' W 014°52'1020.8
2018-Jun-13 16:00N 28°03' W 014°40'1120.9
2018-Jun-13 15:30N 28°02' W 014°28'6 9.3
2018-Jun-13 14:54N 28°03' W 014°22'0 0.0
2018-Jun-13 14:30N 28°03' W 014°22'0 0.0
2018-Jun-13 13:49N 28°03' W 014°22'0 0.0
2018-Jun-13 13:30N 28°03' W 014°22'0 0.0
2018-Jun-13 12:59N 28°03' W 014°22'0 0.0
2018-Jun-13 12:30N 28°03' W 014°22'0 0.0
2018-Jun-13 12:00N 28°03' W 014°22'0 0.0
2018-Jun-13 11:30N 28°03' W 014°22'0 0.0
2018-Jun-13 10:58N 28°03' W 014°22'0 0.0
2018-Jun-13 10:30N 28°03' W 014°22'0 0.0
2018-Jun-13 10:00N 28°03' W 014°22'814.2
2018-Jun-13 09:26N 28°02' W 014°31'819.8
2018-Jun-13 09:01N 28°03' W 014°40'1020.3
2018-Jun-13 08:30N 28°04' W 014°52'1020.1
2018-Jun-13 08:00N 28°06' W 015°03'1020.2
2018-Jun-13 07:30N 28°08' W 015°14'917.8
2018-Jun-13 07:00N 28°09' W 015°24'0 0.4
2018-Jun-13 06:30N 28°10' W 015°24'0 0.0
2018-Jun-13 06:01N 28°10' W 015°24'0 0.0
2018-Jun-13 05:30N 28°10' W 015°24'0 0.0
2018-Jun-13 04:58N 28°10' W 015°24'0 0.0
2018-Jun-13 04:30N 28°10' W 015°24'0 0.0
2018-Jun-13 04:00N 28°10' W 015°24'0 0.0
2018-Jun-13 03:30N 28°10' W 015°24'0 0.0
2018-Jun-13 03:00N 28°10' W 015°24'0 0.0
2018-Jun-13 02:30N 28°10' W 015°24'0 0.0
2018-Jun-13 02:00N 28°10' W 015°24'0 0.0
2018-Jun-13 01:29N 28°10' W 015°24'0 0.0
2018-Jun-13 01:00N 28°10' W 015°24'0 0.0
2018-Jun-13 00:30N 28°10' W 015°24'0 0.0
2018-Jun-12 23:59N 28°10' W 015°24'0 0.0
2018-Jun-12 23:30N 28°10' W 015°24'0 0.0
2018-Jun-12 23:00N 28°10' W 015°24'0 0.0
2018-Jun-12 22:30N 28°10' W 015°24'0 0.0
2018-Jun-12 21:58N 28°10' W 015°24'0 0.0
2018-Jun-12 21:30N 28°10' W 015°24'0 0.0
2018-Jun-12 21:00N 28°10' W 015°24'0 0.0
2018-Jun-12 20:30N 28°10' W 015°24'0 0.0
2018-Jun-12 20:00N 28°10' W 015°24'0 0.0
2018-Jun-12 19:30N 28°10' W 015°24'0 0.0
2018-Jun-12 19:00N 28°10' W 015°24'0 0.0
2018-Jun-12 18:30N 28°10' W 015°24'0 0.0
2018-Jun-12 18:00N 28°10' W 015°24'611.3
2018-Jun-12 17:30N 28°08' W 015°18'1020.7
2018-Jun-12 17:00N 28°07' W 015°06'1020.7
2018-Jun-12 16:31N 28°05' W 014°55'1020.8
2018-Jun-12 16:01N 28°04' W 014°43'1120.6
2018-Jun-12 15:30N 28°02' W 014°31'814.3
2018-Jun-12 14:55N 28°03' W 014°22'0 0.0
2018-Jun-12 14:30N 28°03' W 014°22'0 0.0
2018-Jun-12 13:57N 28°03' W 014°22'0 0.0
2018-Jun-12 13:30N 28°03' W 014°22'0 0.0
2018-Jun-12 13:00N 28°03' W 014°22'0 0.0
2018-Jun-12 12:30N 28°03' W 014°22'0 0.0
2018-Jun-12 12:00N 28°03' W 014°22'0 0.0
2018-Jun-12 11:30N 28°03' W 014°22'0 0.0
2018-Jun-12 10:59N 28°03' W 014°22'0 0.0
2018-Jun-12 10:30N 28°03' W 014°22'0 0.3
2018-Jun-12 09:58N 28°03' W 014°22'817.3
2018-Jun-12 09:29N 28°02' W 014°31'919.7
2018-Jun-12 09:01N 28°04' W 014°42'1020.4
2018-Jun-12 08:31N 28°05' W 014°53'1020.1
2018-Jun-12 08:01N 28°07' W 015°04'1020.1
2018-Jun-12 07:31N 28°08' W 015°16'814.9
2018-Jun-12 07:00N 28°10' W 015°24'0 0.0
2018-Jun-12 06:30N 28°10' W 015°24'0 0.0
2018-Jun-12 06:00N 28°10' W 015°24'0 0.0
2018-Jun-12 05:28N 28°10' W 015°24'0 0.0
2018-Jun-12 04:58N 28°10' W 015°24'0 0.0
2018-Jun-12 04:28N 28°10' W 015°24'0 0.0
2018-Jun-12 03:55N 28°10' W 015°24'0 0.0
2018-Jun-12 03:28N 28°10' W 015°24'0 0.0
2018-Jun-12 02:58N 28°10' W 015°24'0 0.0
2018-Jun-12 02:28N 28°10' W 015°24'0 0.0
2018-Jun-12 01:58N 28°10' W 015°24'0 0.0
2018-Jun-12 01:28N 28°10' W 015°24'0 0.0
2018-Jun-12 00:58N 28°10' W 015°24'0 0.0
2018-Jun-12 00:19N 28°10' W 015°24'0 0.0
2018-Jun-11 23:49N 28°10' W 015°24'0 0.0
2018-Jun-11 23:19N 28°10' W 015°24'0 0.0
2018-Jun-11 22:52N 28°10' W 015°24'0 0.0
2018-Jun-11 22:22N 28°10' W 015°24'0 0.0
2018-Jun-11 21:52N 28°10' W 015°24'0 0.0
2018-Jun-11 21:22N 28°10' W 015°24'0 0.0
2018-Jun-11 20:52N 28°10' W 015°24'0 0.0
2018-Jun-11 20:22N 28°10' W 015°24'0 0.0
2018-Jun-11 19:58N 28°10' W 015°24'0 0.0
2018-Jun-11 19:30N 28°10' W 015°24'0 0.0
2018-Jun-11 19:00N 28°10' W 015°24'0 0.0
2018-Jun-11 18:30N 28°10' W 015°24'0 0.0
2018-Jun-11 18:00N 28°10' W 015°24'612.3
2018-Jun-11 17:30N 28°08' W 015°17'1120.8
2018-Jun-11 16:59N 28°07' W 015°05'1020.8
2018-Jun-11 16:30N 28°05' W 014°54'1121.0
2018-Jun-11 16:00N 28°04' W 014°42'1020.6
2018-Jun-11 15:30N 28°02' W 014°31'814.3
2018-Jun-11 14:57N 28°03' W 014°22'0 0.0
2018-Jun-11 14:23N 28°03' W 014°22'0 0.0
2018-Jun-11 13:59N 28°03' W 014°22'0 0.0
2018-Jun-11 13:27N 28°03' W 014°22'0 0.0
2018-Jun-11 12:59N 28°03' W 014°22'0 0.0
2018-Jun-11 12:29N 28°03' W 014°22'0 0.0
2018-Jun-11 12:01N 28°03' W 014°22'0 0.0
2018-Jun-11 11:27N 28°03' W 014°22'0 0.0
2018-Jun-11 10:51N 28°03' W 014°22'0 0.0
2018-Jun-11 10:30N 28°03' W 014°22'0 0.3
2018-Jun-11 09:53N 28°03' W 014°22'816.8
2018-Jun-11 09:26N 28°02' W 014°30'819.8
2018-Jun-11 09:01N 28°03' W 014°40'1020.5
2018-Jun-11 08:30N 28°05' W 014°51'1020.3
2018-Jun-11 08:01N 28°06' W 015°03'1020.2
2018-Jun-11 07:31N 28°08' W 015°14'917.8
2018-Jun-11 07:00N 28°09' W 015°24'0 0.4
2018-Jun-11 06:30N 28°10' W 015°24'0 0.0
2018-Jun-11 06:00N 28°10' W 015°24'0 0.0
2018-Jun-11 05:29N 28°10' W 015°24'0 0.0
2018-Jun-11 05:00N 28°10' W 015°24'0 0.0
2018-Jun-11 04:30N 28°10' W 015°24'0 0.0
2018-Jun-11 04:00N 28°10' W 015°24'0 0.0
2018-Jun-11 03:30N 28°10' W 015°24'0 0.0
2018-Jun-11 03:00N 28°10' W 015°24'0 0.0
2018-Jun-11 02:30N 28°10' W 015°24'0 0.0
2018-Jun-11 02:00N 28°10' W 015°24'0 0.0
2018-Jun-11 01:30N 28°10' W 015°24'0 0.0
2018-Jun-11 01:00N 28°10' W 015°24'0 0.0
2018-Jun-11 00:30N 28°10' W 015°24'0 0.0
2018-Jun-11 00:00N 28°10' W 015°24'0 0.0
2018-Jun-10 23:30N 28°10' W 015°24'0 0.0
2018-Jun-10 23:00N 28°10' W 015°24'0 0.0
2018-Jun-10 22:30N 28°10' W 015°24'0 0.0
2018-Jun-10 22:00N 28°10' W 015°24'0 0.0
2018-Jun-10 21:29N 28°10' W 015°24'0 0.0
2018-Jun-10 21:00N 28°10' W 015°24'0 0.0
2018-Jun-10 20:30N 28°10' W 015°24'5 9.2
2018-Jun-10 20:00N 28°08' W 015°19'1020.7
2018-Jun-10 19:30N 28°07' W 015°07'1020.5
2018-Jun-10 19:00N 28°05' W 014°56'1020.8
2018-Jun-10 18:30N 28°04' W 014°44'1020.7
2018-Jun-10 18:00N 28°02' W 014°33'1018.9
2018-Jun-10 17:30N 28°03' W 014°22'0 0.1
2018-Jun-10 16:58N 28°03' W 014°22'0 0.0
2018-Jun-10 16:30N 28°03' W 014°22'0 0.2
2018-Jun-10 15:59N 28°03' W 014°22'815.9
2018-Jun-10 15:30N 28°02' W 014°31'1020.7
2018-Jun-10 15:00N 28°03' W 014°42'2020.4
2018-Jun-10 14:00N 28°07' W 015°05'1020.6
2018-Jun-10 13:30N 28°08' W 015°16'713.1
2018-Jun-10 12:58N 28°10' W 015°24'0 0.0
2018-Jun-10 12:30N 28°10' W 015°24'0 0.0
2018-Jun-10 12:00N 28°10' W 015°24'0 0.0
2018-Jun-10 11:30N 28°10' W 015°24'0 0.0
2018-Jun-10 10:59N 28°10' W 015°24'0 0.0
2018-Jun-10 10:30N 28°10' W 015°24'0 0.0
2018-Jun-10 09:59N 28°10' W 015°24'1 2.4
2018-Jun-10 09:30N 28°11' W 015°24'1020.1
2018-Jun-10 09:00N 28°15' W 015°34'1020.7
2018-Jun-10 08:30N 28°19' W 015°45'1020.2
2018-Jun-10 08:00N 28°23' W 015°55'1020.1
2018-Jun-10 07:30N 28°26' W 016°06'813.6
2018-Jun-10 06:56N 28°28' W 016°15'0 0.0
2018-Jun-10 06:29N 28°28' W 016°15'0 0.0
2018-Jun-10 00:39N 28°28' W 016°15'0 0.0
2018-Jun-10 00:16N 28°28' W 016°15'0 0.0
2018-Jun-10 00:00N 28°28' W 016°15'0 0.0
2018-Jun-09 23:23N 28°28' W 016°15'0 0.0
2018-Jun-09 23:00N 28°28' W 016°15'0 0.0
2018-Jun-09 22:29N 28°28' W 016°15'0 0.0
2018-Jun-09 21:58N 28°28' W 016°15'1312.4
2018-Jun-09 20:55N 28°24' W 016°01'921.0
2018-Jun-09 20:30N 28°21' W 015°52'1121.2
2018-Jun-09 20:00N 28°17' W 015°40'1121.1
2018-Jun-09 19:30N 28°13' W 015°29'611.6
2018-Jun-09 19:00N 28°10' W 015°24'0 0.1
2018-Jun-09 18:27N 28°10' W 015°24'0 0.0
2018-Jun-09 18:00N 28°10' W 015°24'3 7.0
2018-Jun-09 17:30N 28°08' W 015°20'1020.8
2018-Jun-09 17:00N 28°07' W 015°08'1020.6
2018-Jun-09 16:30N 28°05' W 014°57'1020.7
2018-Jun-09 16:00N 28°04' W 014°45'1020.7
2018-Jun-09 15:30N 28°02' W 014°34'1010.1
2018-Jun-09 14:28N 28°03' W 014°22'0 0.0
2018-Jun-09 13:45N 28°03' W 014°22'0 0.0
2018-Jun-09 13:01N 28°03' W 014°22'0 0.2
2018-Jun-09 13:00N 28°03' W 014°22'811.9
2018-Jun-09 12:22N 28°02' W 014°30'720.8
2018-Jun-09 12:01N 28°03' W 014°38'1020.6
2018-Jun-09 11:31N 28°05' W 014°50'1020.7
2018-Jun-09 11:01N 28°06' W 015°02'1021.0
2018-Jun-09 10:31N 28°08' W 015°13'1019.1
2018-Jun-09 10:00N 28°09' W 015°24'0 0.7
2018-Jun-09 09:30N 28°10' W 015°24'4 6.8
2018-Jun-09 08:59N 28°12' W 015°26'1021.1
2018-Jun-09 08:30N 28°17' W 015°37'1020.7
2018-Jun-09 08:00N 28°20' W 015°48'1020.6
2018-Jun-09 07:30N 28°24' W 015°59'1120.8
2018-Jun-09 07:00N 28°28' W 016°10'4 3.9
2018-Jun-09 05:58N 28°28' W 016°15'0 0.0
2018-Jun-09 05:13N 28°28' W 016°15'0 0.0
2018-Jun-09 04:47N 28°28' W 016°15'0 0.0
2018-Jun-09 04:27N 28°28' W 016°15'0 0.0
2018-Jun-09 03:14N 28°28' W 016°15'0 0.0
2018-Jun-09 02:58N 28°28' W 016°15'0 0.0
2018-Jun-09 02:28N 28°28' W 016°15'0 0.0
2018-Jun-09 01:55N 28°28' W 016°15'0 0.0
2018-Jun-09 01:27N 28°28' W 016°15'0 0.0
2018-Jun-09 00:54N 28°28' W 016°15'0 0.0
2018-Jun-09 00:22N 28°28' W 016°15'0 0.0
2018-Jun-09 00:00N 28°28' W 016°15'0 0.0
2018-Jun-08 23:27N 28°28' W 016°15'0 0.0
2018-Jun-08 22:58N 28°28' W 016°15'0 0.0
2018-Jun-08 22:30N 28°28' W 016°15'0 0.0
2018-Jun-08 21:58N 28°28' W 016°15'1611.9
2018-Jun-08 20:40N 28°23' W 015°58'420.5
2018-Jun-08 20:29N 28°22' W 015°54'1020.8
2018-Jun-08 20:00N 28°18' W 015°43'1020.8
2018-Jun-08 19:30N 28°15' W 015°32'918.8
2018-Jun-08 19:00N 28°10' W 015°23'1 1.1
2018-Jun-08 18:30N 28°10' W 015°24'0 0.0
2018-Jun-08 18:00N 28°10' W 015°24'4 9.0
2018-Jun-08 17:30N 28°08' W 015°19'1121.2
2018-Jun-08 17:00N 28°07' W 015°07'1021.1
2018-Jun-08 16:30N 28°05' W 014°55'1121.2
2018-Jun-08 16:00N 28°03' W 014°44'1121.4
2018-Jun-08 15:30N 28°02' W 014°31'916.2
2018-Jun-08 14:58N 28°03' W 014°22'0 0.0
2018-Jun-08 14:29N 28°03' W 014°22'0 0.0
2018-Jun-08 13:56N 28°03' W 014°22'0 0.0
2018-Jun-08 13:29N 28°03' W 014°22'1 1.5
2018-Jun-08 12:54N 28°02' W 014°23'820.7
2018-Jun-08 12:30N 28°02' W 014°32'1020.6
2018-Jun-08 12:00N 28°04' W 014°43'1020.6
2018-Jun-08 11:31N 28°05' W 014°55'1020.8
2018-Jun-08 11:00N 28°07' W 015°07'1020.8
2018-Jun-08 10:30N 28°08' W 015°18'510.4
2018-Jun-08 10:00N 28°10' W 015°24'0 0.0
2018-Jun-08 09:30N 28°10' W 015°24'3 5.8
2018-Jun-08 09:01N 28°12' W 015°25'1020.8
2018-Jun-08 08:31N 28°16' W 015°36'1020.5
2018-Jun-08 08:00N 28°20' W 015°47'1020.7
2018-Jun-08 07:30N 28°23' W 015°58'1120.7
2018-Jun-08 06:58N 28°27' W 016°10'4 7.3
2018-Jun-08 06:23N 28°28' W 016°15'0 0.0
2018-Jun-08 06:00N 28°28' W 016°15'0 0.0
2018-Jun-08 05:26N 28°28' W 016°15'0 0.0
2018-Jun-08 05:00N 28°28' W 016°15'0 0.0
2018-Jun-08 04:22N 28°28' W 016°15'0 0.0
2018-Jun-08 04:00N 28°28' W 016°15'  
Track history (hours):
 
Tides and Currents Weather Stations Pressure Air Temp Water Temp Dewpoint Dewpoint Depression Visibility Wind Speed Wind Dir Waves Ship Positions

Volcan De Timanfaya

Last reported at 2018-Jun-18 03:30 UTC. Time now 2018-Jun-18 03:49 UTC.
Position N 28°10' W 015°24'.

Type: Passenger vessel. MMSI: 2414500.

Date/timePositionNaut miles runAvg speedWind from/ knotsBaromVisibWave heightAir tempDewpointWater temp
2018-Jun-18 03:30N 28°10' W 015°24'0 0.0
2018-Jun-18 03:00N 28°10' W 015°24'0 0.0
2018-Jun-18 02:30N 28°10' W 015°24'0 0.0
2018-Jun-18 01:59N 28°10' W 015°24'0 0.0
2018-Jun-18 01:30N 28°10' W 015°24'0 0.0
2018-Jun-18 01:00N 28°10' W 015°24'0 0.0
2018-Jun-18 00:30N 28°10' W 015°24'0 0.0
2018-Jun-17 23:58N 28°10' W 015°24'0 0.0
2018-Jun-17 23:30N 28°10' W 015°24'0 0.0
2018-Jun-17 23:00N 28°10' W 015°24'0 0.0
2018-Jun-17 22:30N 28°10' W 015°24'0 0.0
2018-Jun-17 22:00N 28°10' W 015°24'0 0.0
2018-Jun-17 21:30N 28°10' W 015°24'0 0.0
2018-Jun-17 21:00N 28°10' W 015°24'0 0.0
2018-Jun-17 20:30N 28°10' W 015°24'510.5
2018-Jun-17 20:00N 28°08' W 015°18'1020.3
2018-Jun-17 19:30N 28°07' W 015°07'1020.7
2018-Jun-17 19:00N 28°05' W 014°55'1020.6
2018-Jun-17 18:30N 28°04' W 014°44'1020.4
2018-Jun-17 18:00N 28°02' W 014°32'918.0
2018-Jun-17 17:30N 28°03' W 014°22'0 0.0
2018-Jun-17 17:00N 28°03' W 014°22'0 0.0
2018-Jun-17 16:24N 28°03' W 014°22'0 0.0
2018-Jun-17 16:00N 28°03' W 014°22'813.7
2018-Jun-17 15:24N 28°02' W 014°31'820.2
2018-Jun-17 15:00N 28°03' W 014°40'1020.5
2018-Jun-17 14:30N 28°04' W 014°51'1020.2
2018-Jun-17 14:01N 28°06' W 015°03'1020.0
2018-Jun-17 13:31N 28°07' W 015°14'918.3
2018-Jun-17 13:01N 28°09' W 015°24'0 0.5
2018-Jun-17 12:30N 28°10' W 015°24'0 0.0
2018-Jun-17 12:00N 28°10' W 015°24'0 0.0
2018-Jun-17 11:28N 28°10' W 015°24'0 0.0
2018-Jun-17 11:00N 28°10' W 015°24'0 0.0
2018-Jun-17 10:30N 28°10' W 015°24'0 0.0
2018-Jun-17 10:00N 28°10' W 015°24'2 3.3
2018-Jun-17 09:30N 28°11' W 015°24'1020.3
2018-Jun-17 09:00N 28°15' W 015°34'1020.1
2018-Jun-17 08:30N 28°19' W 015°45'1020.3
2018-Jun-17 08:00N 28°22' W 015°56'1020.6
2018-Jun-17 07:30N 28°26' W 016°07'714.5
2018-Jun-17 07:00N 28°28' W 016°15'0 0.0
2018-Jun-17 06:30N 28°28' W 016°15'0 0.0
2018-Jun-17 06:00N 28°28' W 016°15'0 0.0
2018-Jun-17 05:30N 28°28' W 016°15'0 0.0
2018-Jun-17 05:00N 28°28' W 016°15'0 0.0
2018-Jun-17 04:30N 28°28' W 016°15'0 0.0
2018-Jun-17 04:00N 28°28' W 016°15'0 0.0
2018-Jun-17 03:30N 28°28' W 016°15'0 0.0
2018-Jun-17 03:00N 28°28' W 016°15'0 0.0
2018-Jun-17 02:30N 28°28' W 016°15'0 0.0
2018-Jun-17 02:00N 28°28' W 016°15'0 0.0
2018-Jun-17 01:30N 28°28' W 016°15'0 0.0
2018-Jun-17 01:00N 28°28' W 016°15'0 0.0
2018-Jun-17 00:30N 28°28' W 016°15'0 0.0
2018-Jun-17 00:00N 28°28' W 016°15'0 0.0
2018-Jun-16 23:30N 28°28' W 016°15'0 0.0
2018-Jun-16 23:00N 28°28' W 016°15'0 0.0
2018-Jun-16 22:30N 28°28' W 016°15'0 0.0
2018-Jun-16 21:59N 28°28' W 016°15'3 5.2
2018-Jun-16 21:30N 28°28' W 016°12'1021.2
2018-Jun-16 21:01N 28°24' W 016°01'1121.0
2018-Jun-16 20:30N 28°21' W 015°50'1020.9
2018-Jun-16 20:00N 28°17' W 015°39'1020.7
2018-Jun-16 19:30N 28°13' W 015°28'5 9.0
2018-Jun-16 19:00N 28°10' W 015°24'0 0.0
2018-Jun-16 18:30N 28°10' W 015°24'0 0.0
2018-Jun-16 18:00N 28°10' W 015°24'4 8.5
2018-Jun-16 17:30N 28°08' W 015°19'1020.5
2018-Jun-16 17:00N 28°07' W 015°08'1121.0
2018-Jun-16 16:30N 28°05' W 014°56'1120.9
2018-Jun-16 16:00N 28°04' W 014°44'1021.0
2018-Jun-16 15:31N 28°02' W 014°33'1019.1
2018-Jun-16 15:00N 28°03' W 014°22'0 0.1
2018-Jun-16 14:30N 28°03' W 014°22'0 0.0
2018-Jun-16 14:00N 28°03' W 014°22'0 0.0
2018-Jun-16 13:29N 28°03' W 014°22'8 8.5
2018-Jun-16 12:32N 28°02' W 014°31'119.2
2018-Jun-16 12:30N 28°02' W 014°32'1020.1
2018-Jun-16 12:00N 28°03' W 014°43'1020.5
2018-Jun-16 11:30N 28°05' W 014°54'1020.3
2018-Jun-16 11:00N 28°06' W 015°06'1020.1
2018-Jun-16 10:30N 28°08' W 015°17'612.7
2018-Jun-16 10:00N 28°10' W 015°24'0 0.0
2018-Jun-16 09:30N 28°10' W 015°24'3 5.8
2018-Jun-16 09:00N 28°12' W 015°25'1020.6
2018-Jun-16 08:30N 28°16' W 015°36'1020.2
2018-Jun-16 08:00N 28°20' W 015°47'1020.4
2018-Jun-16 07:31N 28°23' W 015°58'1020.6
2018-Jun-16 07:00N 28°27' W 016°09'510.9
2018-Jun-16 06:30N 28°28' W 016°15'0 0.0
2018-Jun-16 06:00N 28°28' W 016°15'0 0.0
2018-Jun-16 05:30N 28°28' W 016°15'0 0.0
2018-Jun-16 05:00N 28°28' W 016°15'0 0.0
2018-Jun-16 04:30N 28°28' W 016°15'0 0.0
2018-Jun-16 04:00N 28°28' W 016°15'0 0.0
2018-Jun-16 03:30N 28°28' W 016°15'0 0.0
2018-Jun-16 03:00N 28°28' W 016°15'0 0.0
2018-Jun-16 02:30N 28°28' W 016°15'0 0.0
2018-Jun-16 02:00N 28°28' W 016°15'0 0.0
2018-Jun-16 01:30N 28°28' W 016°15'0 0.0
2018-Jun-16 01:00N 28°28' W 016°15'0 0.0
2018-Jun-16 00:30N 28°28' W 016°15'0 0.0
2018-Jun-16 00:00N 28°28' W 016°15'0 0.0
2018-Jun-15 23:30N 28°28' W 016°15'0 0.0
2018-Jun-15 23:00N 28°28' W 016°15'0 0.0
2018-Jun-15 22:30N 28°28' W 016°15'0 0.2
2018-Jun-15 22:00N 28°28' W 016°15'611.2
2018-Jun-15 21:30N 28°27' W 016°08'1020.5
2018-Jun-15 21:00N 28°24' W 015°57'1020.6
2018-Jun-15 20:31N 28°20' W 015°47'1020.5
2018-Jun-15 20:00N 28°16' W 015°36'1020.1
2018-Jun-15 19:30N 28°12' W 015°25'3 5.0
2018-Jun-15 18:58N 28°10' W 015°24'0 0.0
2018-Jun-15 18:30N 28°10' W 015°24'0 0.0
2018-Jun-15 18:00N 28°10' W 015°24'510.6
2018-Jun-15 17:31N 28°08' W 015°18'1020.2
2018-Jun-15 17:00N 28°07' W 015°07'1020.7
2018-Jun-15 16:31N 28°05' W 014°55'1020.5
2018-Jun-15 16:01N 28°04' W 014°44'1120.9
2018-Jun-15 15:30N 28°02' W 014°32'916.9
2018-Jun-15 14:58N 28°03' W 014°22'0 0.0
2018-Jun-15 14:25N 28°03' W 014°22'0 0.0
2018-Jun-15 13:51N 28°03' W 014°22'0 0.0
2018-Jun-15 13:25N 28°03' W 014°22'0 0.0
2018-Jun-15 12:58N 28°03' W 014°22'811.9
2018-Jun-15 12:19N 28°02' W 014°30'619.3
2018-Jun-15 12:01N 28°03' W 014°37'1020.3
2018-Jun-15 11:31N 28°04' W 014°49'1020.2
2018-Jun-15 11:00N 28°05' W 014°60'1020.1
2018-Jun-15 10:31N 28°07' W 015°11'1020.2
2018-Jun-15 10:00N 28°09' W 015°23'2 3.1
2018-Jun-15 09:30N 28°10' W 015°24'2 3.6
2018-Jun-15 09:00N 28°11' W 015°24'1020.7
2018-Jun-15 08:31N 28°15' W 015°34'1020.1
2018-Jun-15 08:00N 28°19' W 015°45'1020.1
2018-Jun-15 07:30N 28°23' W 015°56'1020.3
2018-Jun-15 07:00N 28°26' W 016°06'815.1
2018-Jun-15 06:30N 28°28' W 016°15'0 0.0
2018-Jun-15 06:00N 28°28' W 016°15'0 0.0
2018-Jun-15 05:30N 28°28' W 016°15'0 0.0
2018-Jun-15 05:00N 28°28' W 016°15'0 0.0
2018-Jun-15 04:30N 28°28' W 016°15'0 0.0
2018-Jun-15 04:00N 28°28' W 016°15'0 0.0
2018-Jun-15 03:30N 28°28' W 016°15'0 0.0
2018-Jun-15 03:00N 28°28' W 016°15'0 0.0
2018-Jun-15 02:30N 28°28' W 016°15'0 0.0
2018-Jun-15 02:00N 28°28' W 016°15'0 0.0
2018-Jun-15 01:30N 28°28' W 016°15'0 0.0
2018-Jun-15 01:00N 28°28' W 016°15'0 0.0
2018-Jun-15 00:30N 28°28' W 016°15'0 0.0
2018-Jun-15 00:00N 28°28' W 016°15'0 0.0
2018-Jun-14 23:30N 28°28' W 016°15'0 0.0
2018-Jun-14 23:00N 28°28' W 016°15'0 0.0
2018-Jun-14 22:30N 28°28' W 016°15'0 0.3
2018-Jun-14 22:00N 28°28' W 016°15'510.1
2018-Jun-14 21:30N 28°27' W 016°09'1020.4
2018-Jun-14 21:00N 28°24' W 015°58'1020.4
2018-Jun-14 20:30N 28°20' W 015°47'1020.4
2018-Jun-14 20:00N 28°16' W 015°36'1020.0
2018-Jun-14 19:30N 28°13' W 015°26'3 6.9
2018-Jun-14 19:00N 28°10' W 015°24'0 0.0
2018-Jun-14 18:30N 28°10' W 015°24'0 0.0
2018-Jun-14 17:58N 28°10' W 015°24'510.4
2018-Jun-14 17:30N 28°08' W 015°19'1020.3
2018-Jun-14 17:00N 28°07' W 015°07'1020.6
2018-Jun-14 16:31N 28°05' W 014°56'1020.4
2018-Jun-14 16:00N 28°04' W 014°44'1020.7
2018-Jun-14 15:30N 28°02' W 014°33'1018.9
2018-Jun-14 15:00N 28°03' W 014°22'0 0.1
2018-Jun-14 14:29N 28°03' W 014°22'0 0.0
2018-Jun-14 13:11N 28°03' W 014°22'0 0.0
2018-Jun-14 12:53N 28°03' W 014°22'0 0.0
2018-Jun-14 12:23N 28°03' W 014°22'0 0.0
2018-Jun-14 11:29N 28°03' W 014°22'0 0.0
2018-Jun-14 10:59N 28°03' W 014°22'0 0.0
2018-Jun-14 10:29N 28°03' W 014°22'0 0.0
2018-Jun-14 09:59N 28°03' W 014°22'814.3
2018-Jun-14 09:25N 28°02' W 014°31'819.5
2018-Jun-14 09:00N 28°03' W 014°40'1020.2
2018-Jun-14 08:30N 28°04' W 014°51'1019.9
2018-Jun-14 08:00N 28°06' W 015°03'1020.1
2018-Jun-14 07:30N 28°07' W 015°14'918.7
2018-Jun-14 07:00N 28°09' W 015°24'0 0.9
2018-Jun-14 06:30N 28°10' W 015°24'0 0.0
2018-Jun-14 06:00N 28°10' W 015°24'0 0.0
2018-Jun-14 05:30N 28°10' W 015°24'0 0.0
2018-Jun-14 05:00N 28°10' W 015°24'0 0.0
2018-Jun-14 04:30N 28°10' W 015°24'0 0.0
2018-Jun-14 04:00N 28°10' W 015°24'0 0.0
2018-Jun-14 03:30N 28°10' W 015°24'0 0.0
2018-Jun-14 03:00N 28°10' W 015°24'0 0.0
2018-Jun-14 02:29N 28°10' W 015°24'0 0.0
2018-Jun-14 02:00N 28°10' W 015°24'0 0.0
2018-Jun-14 01:30N 28°10' W 015°24'0 0.0
2018-Jun-14 01:00N 28°10' W 015°24'0 0.0
2018-Jun-14 00:30N 28°10' W 015°24'0 0.0
2018-Jun-14 00:00N 28°10' W 015°24'0 0.0
2018-Jun-13 23:30N 28°10' W 015°24'0 0.0
2018-Jun-13 22:59N 28°10' W 015°24'0 0.0
2018-Jun-13 22:30N 28°10' W 015°24'0 0.0
2018-Jun-13 22:00N 28°10' W 015°24'0 0.0
2018-Jun-13 21:30N 28°10' W 015°24'0 0.0
2018-Jun-13 21:00N 28°10' W 015°24'0 0.0
2018-Jun-13 20:29N 28°10' W 015°24'0 0.0
2018-Jun-13 20:00N 28°10' W 015°24'0 0.0
2018-Jun-13 19:30N 28°10' W 015°24'0 0.0
2018-Jun-13 19:00N 28°10' W 015°24'0 0.0
2018-Jun-13 18:30N 28°10' W 015°24'0 0.3
2018-Jun-13 18:00N 28°09' W 015°24'816.5
2018-Jun-13 17:30N 28°08' W 015°15'1020.8
2018-Jun-13 17:00N 28°06' W 015°03'1020.6
2018-Jun-13 16:31N 28°05' W 014°52'1020.8
2018-Jun-13 16:00N 28°03' W 014°40'1120.9
2018-Jun-13 15:30N 28°02' W 014°28'6 9.3
2018-Jun-13 14:54N 28°03' W 014°22'0 0.0
2018-Jun-13 14:30N 28°03' W 014°22'0 0.0
2018-Jun-13 13:49N 28°03' W 014°22'0 0.0
2018-Jun-13 13:30N 28°03' W 014°22'0 0.0
2018-Jun-13 12:59N 28°03' W 014°22'0 0.0
2018-Jun-13 12:30N 28°03' W 014°22'0 0.0
2018-Jun-13 12:00N 28°03' W 014°22'0 0.0
2018-Jun-13 11:30N 28°03' W 014°22'0 0.0
2018-Jun-13 10:58N 28°03' W 014°22'0 0.0
2018-Jun-13 10:30N 28°03' W 014°22'0 0.0
2018-Jun-13 10:00N 28°03' W 014°22'814.2
2018-Jun-13 09:26N 28°02' W 014°31'819.8
2018-Jun-13 09:01N 28°03' W 014°40'1020.3
2018-Jun-13 08:30N 28°04' W 014°52'1020.1
2018-Jun-13 08:00N 28°06' W 015°03'1020.2
2018-Jun-13 07:30N 28°08' W 015°14'917.8
2018-Jun-13 07:00N 28°09' W 015°24'0 0.4
2018-Jun-13 06:30N 28°10' W 015°24'0 0.0
2018-Jun-13 06:01N 28°10' W 015°24'0 0.0
2018-Jun-13 05:30N 28°10' W 015°24'0 0.0
2018-Jun-13 04:58N 28°10' W 015°24'0 0.0
2018-Jun-13 04:30N 28°10' W 015°24'0 0.0
2018-Jun-13 04:00N 28°10' W 015°24'0 0.0
2018-Jun-13 03:30N 28°10' W 015°24'0 0.0
2018-Jun-13 03:00N 28°10' W 015°24'0 0.0
2018-Jun-13 02:30N 28°10' W 015°24'0 0.0
2018-Jun-13 02:00N 28°10' W 015°24'0 0.0
2018-Jun-13 01:29N 28°10' W 015°24'0 0.0
2018-Jun-13 01:00N 28°10' W 015°24'0 0.0
2018-Jun-13 00:30N 28°10' W 015°24'0 0.0
2018-Jun-12 23:59N 28°10' W 015°24'0 0.0
2018-Jun-12 23:30N 28°10' W 015°24'0 0.0
2018-Jun-12 23:00N 28°10' W 015°24'0 0.0
2018-Jun-12 22:30N 28°10' W 015°24'0 0.0
2018-Jun-12 21:58N 28°10' W 015°24'0 0.0
2018-Jun-12 21:30N 28°10' W 015°24'0 0.0
2018-Jun-12 21:00N 28°10' W 015°24'0 0.0
2018-Jun-12 20:30N 28°10' W 015°24'0 0.0
2018-Jun-12 20:00N 28°10' W 015°24'0 0.0
2018-Jun-12 19:30N 28°10' W 015°24'0 0.0
2018-Jun-12 19:00N 28°10' W 015°24'0 0.0
2018-Jun-12 18:30N 28°10' W 015°24'0 0.0
2018-Jun-12 18:00N 28°10' W 015°24'611.3
2018-Jun-12 17:30N 28°08' W 015°18'1020.7
2018-Jun-12 17:00N 28°07' W 015°06'1020.7
2018-Jun-12 16:31N 28°05' W 014°55'1020.8
2018-Jun-12 16:01N 28°04' W 014°43'1120.6
2018-Jun-12 15:30N 28°02' W 014°31'814.3
2018-Jun-12 14:55N 28°03' W 014°22'0 0.0
2018-Jun-12 14:30N 28°03' W 014°22'0 0.0
2018-Jun-12 13:57N 28°03' W 014°22'0 0.0
2018-Jun-12 13:30N 28°03' W 014°22'0 0.0
2018-Jun-12 13:00N 28°03' W 014°22'0 0.0
2018-Jun-12 12:30N 28°03' W 014°22'0 0.0
2018-Jun-12 12:00N 28°03' W 014°22'0 0.0
2018-Jun-12 11:30N 28°03' W 014°22'0 0.0
2018-Jun-12 10:59N 28°03' W 014°22'0 0.0
2018-Jun-12 10:30N 28°03' W 014°22'0 0.3
2018-Jun-12 09:58N 28°03' W 014°22'817.3
2018-Jun-12 09:29N 28°02' W 014°31'919.7
2018-Jun-12 09:01N 28°04' W 014°42'1020.4
2018-Jun-12 08:31N 28°05' W 014°53'1020.1
2018-Jun-12 08:01N 28°07' W 015°04'1020.1
2018-Jun-12 07:31N 28°08' W 015°16'814.9
2018-Jun-12 07:00N 28°10' W 015°24'0 0.0
2018-Jun-12 06:30N 28°10' W 015°24'0 0.0
2018-Jun-12 06:00N 28°10' W 015°24'0 0.0
2018-Jun-12 05:28N 28°10' W 015°24'0 0.0
2018-Jun-12 04:58N 28°10' W 015°24'0 0.0
2018-Jun-12 04:28N 28°10' W 015°24'0 0.0
2018-Jun-12 03:55N 28°10' W 015°24'0 0.0
2018-Jun-12 03:28N 28°10' W 015°24'0 0.0
2018-Jun-12 02:58N 28°10' W 015°24'0 0.0
2018-Jun-12 02:28N 28°10' W 015°24'0 0.0
2018-Jun-12 01:58N 28°10' W 015°24'0 0.0
2018-Jun-12 01:28N 28°10' W 015°24'0 0.0
2018-Jun-12 00:58N 28°10' W 015°24'0 0.0
2018-Jun-12 00:19N 28°10' W 015°24'0 0.0
2018-Jun-11 23:49N 28°10' W 015°24'0 0.0
2018-Jun-11 23:19N 28°10' W 015°24'0 0.0
2018-Jun-11 22:52N 28°10' W 015°24'0 0.0
2018-Jun-11 22:22N 28°10' W 015°24'0 0.0
2018-Jun-11 21:52N 28°10' W 015°24'0 0.0
2018-Jun-11 21:22N 28°10' W 015°24'0 0.0
2018-Jun-11 20:52N 28°10' W 015°24'0 0.0
2018-Jun-11 20:22N 28°10' W 015°24'0 0.0
2018-Jun-11 19:58N 28°10' W 015°24'0 0.0
2018-Jun-11 19:30N 28°10' W 015°24'0 0.0
2018-Jun-11 19:00N 28°10' W 015°24'0 0.0
2018-Jun-11 18:30N 28°10' W 015°24'0 0.0
2018-Jun-11 18:00N 28°10' W 015°24'612.3
2018-Jun-11 17:30N 28°08' W 015°17'1120.8
2018-Jun-11 16:59N 28°07' W 015°05'1020.8
2018-Jun-11 16:30N 28°05' W 014°54'1121.0
2018-Jun-11 16:00N 28°04' W 014°42'1020.6
2018-Jun-11 15:30N 28°02' W 014°31'814.3
2018-Jun-11 14:57N 28°03' W 014°22'0 0.0
2018-Jun-11 14:23N 28°03' W 014°22'0 0.0
2018-Jun-11 13:59N 28°03' W 014°22'0 0.0
2018-Jun-11 13:27N 28°03' W 014°22'0 0.0
2018-Jun-11 12:59N 28°03' W 014°22'0 0.0
2018-Jun-11 12:29N 28°03' W 014°22'0 0.0
2018-Jun-11 12:01N 28°03' W 014°22'0 0.0
2018-Jun-11 11:27N 28°03' W 014°22'0 0.0
2018-Jun-11 10:51N 28°03' W 014°22'0 0.0
2018-Jun-11 10:30N 28°03' W 014°22'0 0.3
2018-Jun-11 09:53N 28°03' W 014°22'816.8
2018-Jun-11 09:26N 28°02' W 014°30'819.8
2018-Jun-11 09:01N 28°03' W 014°40'1020.5
2018-Jun-11 08:30N 28°05' W 014°51'1020.3
2018-Jun-11 08:01N 28°06' W 015°03'1020.2
2018-Jun-11 07:31N 28°08' W 015°14'917.8
2018-Jun-11 07:00N 28°09' W 015°24'0 0.4
2018-Jun-11 06:30N 28°10' W 015°24'0 0.0
2018-Jun-11 06:00N 28°10' W 015°24'0 0.0
2018-Jun-11 05:29N 28°10' W 015°24'0 0.0
2018-Jun-11 05:00N 28°10' W 015°24'0 0.0
2018-Jun-11 04:30N 28°10' W 015°24'0 0.0
2018-Jun-11 04:00N 28°10' W 015°24'0 0.0
2018-Jun-11 03:30N 28°10' W 015°24'0 0.0
2018-Jun-11 03:00N 28°10' W 015°24'0 0.0
2018-Jun-11 02:30N 28°10' W 015°24'0 0.0
2018-Jun-11 02:00N 28°10' W 015°24'0 0.0
2018-Jun-11 01:30N 28°10' W 015°24'0 0.0
2018-Jun-11 01:00N 28°10' W 015°24'0 0.0
2018-Jun-11 00:30N 28°10' W 015°24'0 0.0
2018-Jun-11 00:00N 28°10' W 015°24'0 0.0
2018-Jun-10 23:30N 28°10' W 015°24'0 0.0
2018-Jun-10 23:00N 28°10' W 015°24'0 0.0
2018-Jun-10 22:30N 28°10' W 015°24'0 0.0
2018-Jun-10 22:00N 28°10' W 015°24'0 0.0
2018-Jun-10 21:29N 28°10' W 015°24'0 0.0
2018-Jun-10 21:00N 28°10' W 015°24'0 0.0
2018-Jun-10 20:30N 28°10' W 015°24'5 9.2
2018-Jun-10 20:00N 28°08' W 015°19'1020.7
2018-Jun-10 19:30N 28°07' W 015°07'1020.5
2018-Jun-10 19:00N 28°05' W 014°56'1020.8
2018-Jun-10 18:30N 28°04' W 014°44'1020.7
2018-Jun-10 18:00N 28°02' W 014°33'1018.9
2018-Jun-10 17:30N 28°03' W 014°22'0 0.1
2018-Jun-10 16:58N 28°03' W 014°22'0 0.0
2018-Jun-10 16:30N 28°03' W 014°22'0 0.2
2018-Jun-10 15:59N 28°03' W 014°22'815.9
2018-Jun-10 15:30N 28°02' W 014°31'1020.7
2018-Jun-10 15:00N 28°03' W 014°42'2020.4
2018-Jun-10 14:00N 28°07' W 015°05'1020.6
2018-Jun-10 13:30N 28°08' W 015°16'713.1
2018-Jun-10 12:58N 28°10' W 015°24'0 0.0
2018-Jun-10 12:30N 28°10' W 015°24'0 0.0
2018-Jun-10 12:00N 28°10' W 015°24'0 0.0
2018-Jun-10 11:30N 28°10' W 015°24'0 0.0
2018-Jun-10 10:59N 28°10' W 015°24'0 0.0
2018-Jun-10 10:30N 28°10' W 015°24'0 0.0
2018-Jun-10 09:59N 28°10' W 015°24'1 2.4
2018-Jun-10 09:30N 28°11' W 015°24'1020.1
2018-Jun-10 09:00N 28°15' W 015°34'1020.7
2018-Jun-10 08:30N 28°19' W 015°45'1020.2
2018-Jun-10 08:00N 28°23' W 015°55'1020.1
2018-Jun-10 07:30N 28°26' W 016°06'813.6
2018-Jun-10 06:56N 28°28' W 016°15'0 0.0
2018-Jun-10 06:29N 28°28' W 016°15'0 0.0
2018-Jun-10 00:39N 28°28' W 016°15'0 0.0
2018-Jun-10 00:16N 28°28' W 016°15'0 0.0
2018-Jun-10 00:00N 28°28' W 016°15'0 0.0
2018-Jun-09 23:23N 28°28' W 016°15'0 0.0
2018-Jun-09 23:00N 28°28' W 016°15'0 0.0
2018-Jun-09 22:29N 28°28' W 016°15'0 0.0
2018-Jun-09 21:58N 28°28' W 016°15'1312.4
2018-Jun-09 20:55N 28°24' W 016°01'921.0
2018-Jun-09 20:30N 28°21' W 015°52'1121.2
2018-Jun-09 20:00N 28°17' W 015°40'1121.1
2018-Jun-09 19:30N 28°13' W 015°29'611.6
2018-Jun-09 19:00N 28°10' W 015°24'0 0.1
2018-Jun-09 18:27N 28°10' W 015°24'0 0.0
2018-Jun-09 18:00N 28°10' W 015°24'3 7.0
2018-Jun-09 17:30N 28°08' W 015°20'1020.8
2018-Jun-09 17:00N 28°07' W 015°08'1020.6
2018-Jun-09 16:30N 28°05' W 014°57'1020.7
2018-Jun-09 16:00N 28°04' W 014°45'1020.7
2018-Jun-09 15:30N 28°02' W 014°34'1010.1
2018-Jun-09 14:28N 28°03' W 014°22'0 0.0
2018-Jun-09 13:45N 28°03' W 014°22'0 0.0
2018-Jun-09 13:01N 28°03' W 014°22'0 0.2
2018-Jun-09 13:00N 28°03' W 014°22'811.9
2018-Jun-09 12:22N 28°02' W 014°30'720.8
2018-Jun-09 12:01N 28°03' W 014°38'1020.6
2018-Jun-09 11:31N 28°05' W 014°50'1020.7
2018-Jun-09 11:01N 28°06' W 015°02'1021.0
2018-Jun-09 10:31N 28°08' W 015°13'1019.1
2018-Jun-09 10:00N 28°09' W 015°24'0 0.7
2018-Jun-09 09:30N 28°10' W 015°24'4 6.8
2018-Jun-09 08:59N 28°12' W 015°26'1021.1
2018-Jun-09 08:30N 28°17' W 015°37'1020.7
2018-Jun-09 08:00N 28°20' W 015°48'1020.6
2018-Jun-09 07:30N 28°24' W 015°59'1120.8
2018-Jun-09 07:00N 28°28' W 016°10'4 3.9
2018-Jun-09 05:58N 28°28' W 016°15'0 0.0
2018-Jun-09 05:13N 28°28' W 016°15'0 0.0
2018-Jun-09 04:47N 28°28' W 016°15'0 0.0
2018-Jun-09 04:27N 28°28' W 016°15'0 0.0
2018-Jun-09 03:14N 28°28' W 016°15'0 0.0
2018-Jun-09 02:58N 28°28' W 016°15'0 0.0
2018-Jun-09 02:28N 28°28' W 016°15'0 0.0
2018-Jun-09 01:55N 28°28' W 016°15'0 0.0
2018-Jun-09 01:27N 28°28' W 016°15'0 0.0
2018-Jun-09 00:54N 28°28' W 016°15'0 0.0
2018-Jun-09 00:22N 28°28' W 016°15'0 0.0
2018-Jun-09 00:00N 28°28' W 016°15'0 0.0
2018-Jun-08 23:27N 28°28' W 016°15'0 0.0
2018-Jun-08 22:58N 28°28' W 016°15'0 0.0
2018-Jun-08 22:30N 28°28' W 016°15'0 0.0
2018-Jun-08 21:58N 28°28' W 016°15'1611.9
2018-Jun-08 20:40N 28°23' W 015°58'420.5
2018-Jun-08 20:29N 28°22' W 015°54'1020.8
2018-Jun-08 20:00N 28°18' W 015°43'1020.8
2018-Jun-08 19:30N 28°15' W 015°32'918.8
2018-Jun-08 19:00N 28°10' W 015°23'1 1.1
2018-Jun-08 18:30N 28°10' W 015°24'0 0.0
2018-Jun-08 18:00N 28°10' W 015°24'4 9.0
2018-Jun-08 17:30N 28°08' W 015°19'1121.2
2018-Jun-08 17:00N 28°07' W 015°07'1021.1
2018-Jun-08 16:30N 28°05' W 014°55'1121.2
2018-Jun-08 16:00N 28°03' W 014°44'1121.4
2018-Jun-08 15:30N 28°02' W 014°31'916.2
2018-Jun-08 14:58N 28°03' W 014°22'0 0.0
2018-Jun-08 14:29N 28°03' W 014°22'0 0.0
2018-Jun-08 13:56N 28°03' W 014°22'0 0.0
2018-Jun-08 13:29N 28°03' W 014°22'1 1.5
2018-Jun-08 12:54N 28°02' W 014°23'820.7
2018-Jun-08 12:30N 28°02' W 014°32'1020.6
2018-Jun-08 12:00N 28°04' W 014°43'1020.6
2018-Jun-08 11:31N 28°05' W 014°55'1020.8
2018-Jun-08 11:00N 28°07' W 015°07'1020.8
2018-Jun-08 10:30N 28°08' W 015°18'510.4
2018-Jun-08 10:00N 28°10' W 015°24'0 0.0
2018-Jun-08 09:30N 28°10' W 015°24'3 5.8
2018-Jun-08 09:01N 28°12' W 015°25'1020.8
2018-Jun-08 08:31N 28°16' W 015°36'1020.5
2018-Jun-08 08:00N 28°20' W 015°47'1020.7
2018-Jun-08 07:30N 28°23' W 015°58'1120.7
2018-Jun-08 06:58N 28°27' W 016°10'4 7.3
2018-Jun-08 06:23N 28°28' W 016°15'0 0.0
2018-Jun-08 06:00N 28°28' W 016°15'0 0.0
2018-Jun-08 05:26N 28°28' W 016°15'0 0.0
2018-Jun-08 05:00N 28°28' W 016°15'0 0.0
2018-Jun-08 04:22N 28°28' W 016°15'0 0.0
2018-Jun-08 04:00N 28°28' W 016°15'  

Dump ship's entire track history